METAR Data
IDs: Format: Raw Decoded Include TAF

Data at: 1459 UTC 04 Aug 2021

KGOO 041455Z AUTO 10004KT 10SM CLR 28/01 A3004 RMK A01
KGOO 041435Z AUTO 10005KT 10SM CLR 26/02 A3004 RMK A01
KGOO 041415Z AUTO 00000KT 10SM CLR 25/01 A3004 RMK A01
KGOO 041355Z AUTO 00000KT 10SM CLR 24/00 A3004 RMK A01
KGOO 041335Z AUTO 00000KT 10SM CLR 23/00 A3003 RMK A01
KGOO 041315Z AUTO 00000KT 10SM CLR 23/01 A3003 RMK A01
KGOO 041255Z AUTO 00000KT 10SM CLR 23/02 A3003 RMK A01
KGOO 041235Z AUTO 00000KT 10SM CLR 23/01 A3003 RMK A01
KGOO 041215Z AUTO 00000KT 10SM CLR 23/02 A3003 RMK A01
KGOO 041150Z AUTO 00000KT 10SM CLR 23/02 A3003 RMK A01
KGOO 041135Z AUTO 00000KT 10SM CLR 23/02 A3003 RMK A01
KGOO 041115Z AUTO 00000KT 10SM CLR 23/01 A3003 RMK A01
KGOO 041055Z AUTO 00000KT 10SM CLR 23/01 A3003 RMK A01
KGOO 041035Z AUTO 00000KT 10SM CLR 23/01 A3003 RMK A01
KGOO 041015Z AUTO 00000KT 10SM CLR 24/01 A3003 RMK A01
KGOO 040955Z AUTO 00000KT 10SM CLR 24/00 A3003 RMK A01
KGOO 040935Z AUTO 00000KT 10SM CLR 24/00 A3003 RMK A01
KGOO 040915Z AUTO 00000KT 10SM CLR 24/00 A3003 RMK A01
KGOO 040855Z AUTO 00000KT 10SM CLR 24/00 A3003 RMK A01
KGOO 040825Z AUTO 00000KT 10SM CLR 24/00 A3004 RMK A01
KGOO 040815Z AUTO 00000KT 10SM CLR 24/01 A3004 RMK A01
KGOO 040755Z AUTO 00000KT 10SM CLR 25/00 A3004 RMK A01
KGOO 040735Z AUTO 00000KT 10SM CLR 25/01 A3005 RMK A01
KGOO 040710Z AUTO 00000KT 10SM CLR 25/00 A3005 RMK A01
KGOO 040655Z AUTO 00000KT 10SM CLR 26/M00 A3005 RMK A01
KGOO 040635Z AUTO 00000KT 10SM CLR 26/M00 A3005 RMK A01
KGOO 040615Z AUTO 00000KT 10SM CLR 25/00 A3005 RMK A01
KGOO 040555Z AUTO 00000KT 10SM CLR 25/01 A3005 RMK A01
KGOO 040535Z AUTO 00000KT 10SM CLR 26/01 A3006 RMK A01
KGOO 040515Z AUTO 00000KT 10SM CLR 26/02 A3006 RMK A01
KGOO 040455Z AUTO 00000KT 10SM CLR 27/00 A3006 RMK A01
KGOO 040435Z AUTO 00000KT 10SM CLR 26/01 A3006 RMK A01
KGOO 040415Z AUTO 00000KT 10SM CLR 26/02 A3006 RMK A01
KGOO 040355Z AUTO 00000KT 10SM CLR 27/02 A3006 RMK A01
KGOO 040335Z AUTO 00000KT 10SM CLR 28/02 A3005 RMK A01
KGOO 040315Z AUTO 00000KT 10SM CLR 29/01 A3005 RMK A01
KGOO 040255Z AUTO 00000KT 10SM CLR 31/M00 A3005 RMK A01
KGOO 040230Z AUTO 30004KT 10SM CLR 32/M00 A3006 RMK A01
KGOO 040215Z AUTO 00000KT 10SM CLR 32/M02 A3006 RMK A01
KGOO 040155Z AUTO 00000KT 10SM CLR 33/M02 A3006 RMK A01
KGOO 040135Z AUTO 26004KT 10SM CLR 33/M03 A3006 RMK A01
KGOO 040115Z AUTO 00000KT 10SM CLR 33/M03 A3006 RMK A01
KGOO 040055Z AUTO VRB04KT 10SM CLR 34/M03 A3007 RMK A01
KGOO 040035Z AUTO VRB04KT 10SM CLR 33/M04 A3008 RMK A01
KGOO 040015Z AUTO 00000KT 10SM CLR 34/M04 A3008 RMK A01
KGOO 032355Z AUTO 28008KT 10SM CLR 34/M03 A3008 RMK A01
KGOO 032335Z AUTO 26006KT 10SM CLR 35/M04 A3009 RMK A01
KGOO 032315Z AUTO VRB06KT 10SM CLR 34/M04 A3009 RMK A01
KGOO 032255Z AUTO VRB04KT 10SM CLR 35/M03 A3010 RMK A01
KGOO 032235Z AUTO 00000KT 10SM CLR 35/M04 A3010 RMK A01
KGOO 032215Z AUTO 30007KT 260V320 10SM CLR 34/M01 A3011 RMK A01
KGOO 032155Z AUTO VRB04KT 10SM CLR 35/M01 A3012 RMK A01
KGOO 032135Z AUTO 26007KT 10SM CLR 34/01 A3012 RMK A01
KGOO 032115Z AUTO VRB06KT 10SM CLR 34/02 A3013 RMK A01
KGOO 032050Z AUTO VRB05G11KT 10SM CLR 34/03 A3013 RMK A01
KGOO 032035Z AUTO 26008KT 10SM CLR 34/03 A3013 RMK A01
KGOO 032015Z AUTO 23007G13KT 10SM CLR 34/03 A3013 RMK A01
KGOO 031955Z AUTO VRB05G10KT 10SM CLR 35/04 A3013 RMK A01
KGOO 031935Z AUTO 00000KT 10SM CLR 33/01 A3013 RMK A01
KGOO 031915Z AUTO VRB05KT 10SM CLR 35/01 A3013 RMK A01
KGOO 031855Z AUTO 00000KT 10SM CLR 33/01 A3014 RMK A01
KGOO 031835Z AUTO 15004KT 10SM CLR 34/02 A3014 RMK A01
KGOO 031815Z AUTO VRB05KT 10SM CLR 33/02 A3014 RMK A01
KGOO 031755Z AUTO 00000KT 10SM CLR 33/04 A3014 RMK A01
KGOO 031735Z AUTO 00000KT 10SM CLR 31/05 A3014 RMK A01
KGOO 031715Z AUTO 00000KT 10SM CLR 29/05 A3014 RMK A01
KGOO 031655Z AUTO 00000KT 10SM CLR 29/04 A3014 RMK A01
KGOO 031635Z AUTO 00000KT 10SM CLR 30/04 A3014 RMK A01
KGOO 031615Z AUTO 00000KT 10SM CLR 29/04 A3014 RMK A01
KGOO 031555Z AUTO 00000KT 10SM CLR 29/05 A3014 RMK A01
KGOO 031535Z AUTO 00000KT 10SM CLR 28/04 A3014 RMK A01
KGOO 031510Z AUTO 00000KT 10SM CLR 27/05 A3013 RMK A01
KGOO 031455Z AUTO 00000KT 10SM CLR 27/06 A3013 RMK A01
KGOO 031435Z AUTO 00000KT 10SM CLR 25/05 A3013 RMK A01
KGOO 031415Z AUTO 00000KT 10SM CLR 23/03 A3013 RMK A01
KGOO 031355Z AUTO 00000KT 10SM CLR 22/M00 A3013 RMK A01
KGOO 031335Z AUTO 00000KT 10SM CLR 22/M02 A3013 RMK A01
KGOO 031315Z AUTO 00000KT 10SM CLR 22/M00 A3013 RMK A01
KGOO 031255Z AUTO 00000KT 10SM FEW042 22/02 A3012 RMK A01
KGOO 031235Z AUTO 00000KT 10SM SCT042 22/02 A3012 RMK A01
KGOO 031215Z AUTO 00000KT 10SM CLR 22/03 A3012 RMK A01
KGOO 031155Z AUTO 00000KT 10SM CLR 22/03 A3012 RMK A01
KGOO 031135Z AUTO 00000KT 10SM CLR 22/03 A3012 RMK A01
KGOO 031115Z AUTO 00000KT 10SM CLR 22/04 A3011 RMK A01
KGOO 031055Z AUTO 00000KT 10SM CLR 23/03 A3011 RMK A01
KGOO 031030Z AUTO 00000KT 10SM CLR 23/03 A3011 RMK A01
KGOO 031015Z AUTO 00000KT 10SM CLR 23/03 A3011 RMK A01
KGOO 030955Z AUTO 00000KT 10SM CLR 24/02 A3011 RMK A01
KGOO 030930Z AUTO 00000KT 10SM CLR 24/03 A3011 RMK A01
KGOO 030915Z AUTO 00000KT 10SM CLR 24/02 A3011 RMK A01
KGOO 030855Z AUTO 00000KT 10SM CLR 24/02 A3011 RMK A01
KGOO 030830Z AUTO 00000KT 10SM CLR 24/03 A3011 RMK A01
KGOO 030815Z AUTO 00000KT 10SM CLR 24/03 A3012 RMK A01
KGOO 030755Z AUTO 00000KT 10SM FEW034 24/02 A3012 RMK A01
KGOO 030735Z AUTO 00000KT 10SM FEW035 25/02 A3012 RMK A01
KGOO 030715Z AUTO 00000KT 10SM CLR 24/02 A3012 RMK A01
KGOO 030655Z AUTO 00000KT 10SM FEW035 25/02 A3012 RMK A01
KGOO 030635Z AUTO 00000KT 10SM FEW033 25/02 A3012 RMK A01
KGOO 030615Z AUTO 00000KT 10SM CLR 25/02 A3012 RMK A01
KGOO 030550Z AUTO 00000KT 10SM CLR 25/02 A3013 RMK A01
KGOO 030535Z AUTO 00000KT 10SM CLR 25/02 A3013 RMK A01
KGOO 030515Z AUTO 00000KT 10SM CLR 25/02 A3014 RMK A01
KGOO 030450Z AUTO 00000KT 10SM CLR 25/03 A3014 RMK A01
KGOO 030435Z AUTO 00000KT 10SM CLR 25/02 A3014 RMK A01
KGOO 030415Z AUTO 00000KT 10SM CLR 25/03 A3014 RMK A01
KGOO 030355Z AUTO 00000KT 10SM CLR 26/02 A3014 RMK A01
KGOO 030335Z AUTO 00000KT 10SM CLR 26/03 A3014 RMK A01
KGOO 030315Z AUTO 00000KT 10SM CLR 28/03 A3014 RMK A01